createdAt,value
2022-11-20T00:00:59.927Z,0.00
2022-11-20T00:01:59.907Z,0.00
2022-11-20T00:02:59.851Z,0.00
2022-11-20T00:03:59.791Z,0.00
2022-11-20T00:04:59.744Z,0.00
2022-11-20T00:05:59.694Z,0.00
2022-11-20T00:06:59.671Z,0.00
2022-11-20T00:07:59.605Z,0.00
2022-11-20T00:08:59.573Z,0.00
2022-11-20T00:09:59.510Z,0.00
2022-11-20T00:10:59.491Z,0.00
2022-11-20T00:11:59.417Z,0.00
2022-11-20T00:12:59.371Z,0.00
2022-11-20T00:13:59.323Z,0.00
2022-11-20T00:14:59.288Z,0.00
2022-11-20T00:15:59.232Z,0.00
2022-11-20T00:16:59.181Z,0.00
2022-11-20T00:17:59.140Z,0.00
2022-11-20T00:18:59.094Z,0.00
2022-11-20T00:19:59.048Z,0.00
2022-11-20T00:20:59.019Z,0.00
2022-11-20T00:21:58.952Z,0.00
2022-11-20T00:22:58.902Z,0.00
2022-11-20T00:23:58.865Z,0.00
2022-11-20T00:24:58.809Z,0.00
2022-11-20T00:25:58.767Z,0.00
2022-11-20T00:26:58.738Z,0.00
2022-11-20T00:27:58.681Z,0.00
2022-11-20T00:28:58.629Z,0.00
2022-11-20T00:29:58.580Z,0.00
2022-11-20T00:30:58.539Z,0.00
2022-11-20T00:31:58.487Z,0.00
2022-11-20T00:32:58.463Z,0.00
2022-11-20T00:33:58.418Z,0.00
2022-11-20T00:34:58.354Z,0.00
2022-11-20T00:35:58.310Z,0.00
2022-11-20T00:36:58.263Z,0.00
2022-11-20T00:37:58.213Z,0.00
2022-11-20T00:38:58.306Z,0.00
2022-11-20T00:39:58.124Z,0.00
2022-11-20T00:40:58.075Z,0.00
2022-11-20T00:41:58.027Z,0.00
2022-11-20T00:42:57.979Z,0.00
2022-11-20T00:43:57.937Z,0.00
2022-11-20T00:44:57.905Z,0.00
2022-11-20T00:45:57.844Z,0.00
2022-11-20T00:46:57.797Z,0.00
2022-11-20T00:47:57.752Z,0.00
2022-11-20T00:48:57.709Z,0.00
2022-11-20T00:49:57.657Z,0.00
2022-11-20T00:50:57.641Z,0.00
2022-11-20T00:51:57.565Z,0.00
2022-11-20T00:52:57.519Z,0.00
2022-11-20T00:53:57.477Z,0.00
2022-11-20T00:54:57.428Z,0.00
2022-11-20T00:55:57.381Z,0.00
2022-11-20T00:56:57.365Z,0.00
2022-11-20T00:57:57.292Z,0.00
2022-11-20T00:58:57.265Z,0.00
2022-11-20T00:59:57.199Z,0.00
2022-11-20T01:00:57.174Z,0.00
2022-11-20T01:01:57.102Z,0.00
2022-11-20T01:02:57.066Z,0.00
2022-11-20T01:03:57.052Z,0.00
2022-11-20T01:04:56.972Z,0.00
2022-11-20T01:05:56.920Z,0.00
2022-11-20T01:06:56.989Z,0.00
2022-11-20T01:07:56.827Z,0.00
2022-11-20T01:08:56.783Z,0.00
2022-11-20T01:09:56.762Z,0.00
2022-11-20T01:10:56.692Z,0.00
2022-11-20T01:11:56.643Z,0.00
2022-11-20T01:12:56.599Z,0.00
2022-11-20T01:13:56.552Z,0.00
2022-11-20T01:14:56.511Z,0.00
2022-11-20T01:15:56.481Z,0.00
2022-11-20T01:16:56.419Z,0.00
2022-11-20T01:17:56.374Z,0.00
2022-11-20T01:18:56.322Z,0.00
2022-11-20T01:19:56.275Z,0.00
2022-11-20T01:20:56.258Z,0.00
2022-11-20T01:21:56.189Z,0.00
2022-11-20T01:22:56.140Z,0.00
2022-11-20T01:23:56.092Z,0.00
2022-11-20T01:24:56.046Z,0.00
2022-11-20T01:25:56.028Z,0.00
2022-11-20T01:26:55.950Z,0.00
2022-11-20T01:27:55.911Z,0.00
2022-11-20T01:28:55.861Z,0.00
2022-11-20T01:30:00.840Z,0.00
2022-11-20T01:30:55.792Z,0.00
2022-11-20T01:31:55.752Z,0.00
2022-11-20T01:32:55.679Z,0.00
2022-11-20T01:33:55.657Z,0.00
2022-11-20T01:34:55.612Z,0.00
2022-11-20T01:35:55.570Z,0.00
2022-11-20T01:36:55.491Z,0.00
2022-11-20T01:37:55.452Z,0.00
2022-11-20T01:38:55.402Z,0.00
2022-11-20T01:39:55.354Z,0.00
2022-11-20T01:40:55.328Z,0.00
2022-11-20T01:41:55.286Z,0.00
2022-11-20T01:42:55.220Z,0.00
2022-11-20T01:43:55.166Z,0.00
2022-11-20T01:44:55.126Z,0.00
2022-11-20T01:45:55.074Z,0.00
2022-11-20T01:46:55.026Z,0.00
2022-11-20T01:47:55.000Z,0.00
2022-11-20T01:48:54.936Z,0.00
2022-11-20T01:49:54.889Z,0.00
2022-11-20T01:50:54.844Z,0.00
2022-11-20T01:51:54.801Z,0.00
2022-11-20T01:52:54.749Z,0.00
2022-11-20T01:53:54.729Z,0.00
2022-11-20T01:54:54.659Z,0.00
2022-11-20T01:55:54.617Z,0.00
2022-11-20T01:56:54.594Z,0.00
2022-11-20T01:57:54.518Z,0.00
2022-11-20T01:58:54.473Z,0.00
2022-11-20T01:59:54.432Z,0.00
2022-11-20T02:00:54.453Z,0.00
2022-11-20T02:01:54.336Z,0.00
2022-11-20T02:02:54.292Z,0.00
2022-11-20T02:03:54.243Z,0.00
2022-11-20T02:04:54.198Z,0.00
2022-11-20T02:05:54.149Z,0.00
2022-11-20T02:06:54.158Z,0.00
2022-11-20T02:07:54.060Z,0.00
2022-11-20T02:08:54.015Z,0.00
2022-11-20T02:09:58.401Z,0.00
2022-11-20T02:10:53.919Z,0.00
2022-11-20T02:11:53.873Z,0.00
2022-11-20T02:12:53.844Z,0.00
2022-11-20T02:13:53.783Z,0.00
2022-11-20T02:14:53.735Z,0.00
2022-11-20T02:15:53.690Z,0.00
2022-11-20T02:16:53.640Z,0.00
2022-11-20T02:17:53.598Z,0.00
2022-11-20T02:18:53.573Z,0.00
2022-11-20T02:19:53.502Z,0.00
2022-11-20T02:20:53.455Z,0.00
2022-11-20T02:21:53.408Z,0.00
2022-11-20T02:22:53.364Z,0.00
2022-11-20T02:23:53.319Z,0.00
2022-11-20T02:24:53.295Z,0.00
2022-11-20T02:25:53.229Z,0.00
2022-11-20T02:26:53.184Z,0.00
2022-11-20T02:27:53.137Z,0.00
2022-11-20T02:28:53.086Z,0.00
2022-11-20T02:29:53.073Z,0.00
2022-11-20T02:30:52.996Z,0.00
2022-11-20T02:31:52.954Z,0.00
2022-11-20T02:32:52.904Z,0.00
2022-11-20T02:33:52.866Z,0.00
2022-11-20T02:34:52.816Z,0.00
2022-11-20T02:35:52.781Z,0.00
2022-11-20T02:36:52.719Z,0.00
2022-11-20T02:37:52.673Z,0.00
2022-11-20T02:38:52.631Z,0.00
2022-11-20T02:39:52.584Z,0.00
2022-11-20T02:40:55.566Z,0.00
2022-11-20T02:41:52.597Z,0.00
2022-11-20T02:42:52.442Z,0.00
2022-11-20T02:43:52.399Z,0.00
2022-11-20T02:44:52.350Z,0.00
2022-11-20T02:45:52.303Z,0.00
2022-11-20T02:46:52.253Z,0.00
2022-11-20T02:47:52.235Z,0.00
2022-11-20T02:48:52.168Z,0.00
2022-11-20T02:49:52.121Z,0.00
2022-11-20T02:50:52.075Z,0.00
2022-11-20T02:51:52.064Z,0.00
2022-11-20T02:52:51.982Z,0.00
2022-11-20T02:53:51.939Z,0.00
2022-11-20T02:54:51.888Z,0.00
2022-11-20T02:55:51.863Z,0.00
2022-11-20T02:56:51.794Z,0.00
2022-11-20T02:57:51.784Z,0.00
2022-11-20T02:58:51.703Z,0.00
2022-11-20T02:59:51.662Z,0.00
2022-11-20T03:00:51.675Z,0.00
2022-11-20T03:01:51.564Z,0.00
2022-11-20T03:02:51.518Z,0.00
2022-11-20T03:03:51.515Z,0.00
2022-11-20T03:04:51.426Z,0.00
2022-11-20T03:05:51.394Z,0.00
2022-11-20T03:06:51.334Z,0.00
2022-11-20T03:07:51.292Z,0.00
2022-11-20T03:08:51.246Z,0.00
2022-11-20T03:09:51.235Z,0.00
2022-11-20T03:10:51.153Z,0.00
2022-11-20T03:11:51.109Z,0.00
2022-11-20T03:12:51.060Z,0.00
2022-11-20T03:13:51.016Z,0.00
2022-11-20T03:14:53.256Z,0.00
2022-11-20T03:15:50.949Z,0.00
2022-11-20T03:16:50.880Z,0.00
2022-11-20T03:17:50.829Z,0.00
2022-11-20T03:18:50.783Z,0.00
2022-11-20T03:19:50.737Z,0.00
2022-11-20T03:20:50.689Z,0.00
2022-11-20T03:21:50.667Z,0.00
2022-11-20T03:22:50.598Z,0.00
2022-11-20T03:23:50.557Z,0.00
2022-11-20T03:24:50.505Z,0.00
2022-11-20T03:25:50.460Z,0.00
2022-11-20T03:26:50.420Z,0.00
2022-11-20T03:27:50.393Z,0.00
2022-11-20T03:28:50.345Z,0.00
2022-11-20T03:29:50.274Z,0.00
2022-11-20T03:30:50.245Z,0.00
2022-11-20T03:31:50.186Z,0.00
2022-11-20T03:32:50.134Z,0.00
2022-11-20T03:33:50.120Z,0.00
2022-11-20T03:34:50.072Z,0.00
2022-11-20T03:35:50.002Z,0.00
2022-11-20T03:36:49.951Z,0.00
2022-11-20T03:37:49.911Z,0.00
2022-11-20T03:38:49.862Z,0.00
2022-11-20T03:39:49.814Z,0.00
2022-11-20T03:40:49.802Z,0.00
2022-11-20T03:41:49.723Z,0.00
2022-11-20T03:42:49.699Z,0.00
2022-11-20T03:43:49.634Z,0.00
2022-11-20T03:44:49.586Z,0.00
2022-11-20T03:45:49.538Z,0.00
2022-11-20T03:46:49.516Z,0.00
2022-11-20T03:47:49.447Z,0.00
2022-11-20T03:48:52.012Z,0.00
2022-11-20T03:49:49.375Z,0.00
2022-11-20T03:50:49.305Z,0.00
2022-11-20T03:51:49.267Z,0.00
2022-11-20T03:52:49.218Z,0.00
2022-11-20T03:53:49.169Z,0.00
2022-11-20T03:54:49.127Z,0.00
2022-11-20T03:55:49.095Z,0.00
2022-11-20T03:56:49.054Z,0.00
2022-11-20T03:57:48.985Z,0.00
2022-11-20T03:58:48.941Z,0.00
2022-11-20T03:59:48.894Z,0.00
2022-11-20T04:00:48.846Z,0.00
2022-11-20T04:01:49.649Z,0.00
2022-11-20T04:02:48.777Z,0.00
2022-11-20T04:03:48.709Z,0.00
2022-11-20T04:04:48.664Z,0.00
2022-11-20T04:05:48.615Z,0.00
2022-11-20T04:06:48.573Z,0.00
2022-11-20T04:07:48.524Z,0.00
2022-11-20T04:08:53.342Z,0.00
2022-11-20T04:09:48.431Z,0.00
2022-11-20T04:10:48.392Z,0.00
2022-11-20T04:11:48.341Z,0.00
2022-11-20T04:12:48.334Z,0.00
2022-11-20T04:13:48.246Z,0.00
2022-11-20T04:14:48.231Z,0.00
2022-11-20T04:15:48.161Z,0.00
2022-11-20T04:16:48.107Z,0.00
2022-11-20T04:17:48.063Z,0.00
2022-11-20T04:18:48.019Z,0.00
2022-11-20T04:19:47.972Z,0.00
2022-11-20T04:20:47.960Z,0.00
2022-11-20T04:21:47.906Z,0.00
2022-11-20T04:22:47.834Z,0.00
2022-11-20T04:23:47.789Z,0.00
2022-11-20T04:24:47.742Z,0.00
2022-11-20T04:25:47.720Z,0.00
2022-11-20T04:26:47.651Z,0.00
2022-11-20T04:27:47.608Z,0.00
2022-11-20T04:28:47.558Z,0.00
2022-11-20T04:29:47.511Z,0.00
2022-11-20T04:30:47.466Z,0.00
2022-11-20T04:31:47.442Z,0.00
2022-11-20T04:32:47.376Z,0.00
2022-11-20T04:33:47.329Z,0.00
2022-11-20T04:34:47.281Z,0.00
2022-11-20T04:35:47.238Z,0.00
2022-11-20T04:36:47.194Z,0.00
2022-11-20T04:37:47.163Z,0.00
2022-11-20T04:38:47.098Z,0.00
2022-11-20T04:39:47.050Z,0.00
2022-11-20T04:40:47.003Z,0.00
2022-11-20T04:41:46.956Z,0.00
2022-11-20T04:42:46.914Z,0.00
2022-11-20T04:43:46.887Z,0.00
2022-11-20T04:44:46.824Z,0.00
2022-11-20T04:45:46.775Z,0.00
2022-11-20T04:46:46.758Z,0.00
2022-11-20T04:47:46.709Z,0.00
2022-11-20T04:48:46.637Z,0.00
2022-11-20T04:49:46.653Z,0.00
2022-11-20T04:50:46.550Z,0.00
2022-11-20T04:51:46.500Z,0.00
2022-11-20T04:52:46.455Z,0.00
2022-11-20T04:53:46.406Z,0.00
2022-11-20T04:54:46.374Z,0.00
2022-11-20T04:55:46.313Z,0.00
2022-11-20T04:56:46.274Z,0.00
2022-11-20T04:57:46.221Z,0.00
2022-11-20T04:58:46.177Z,0.00
2022-11-20T04:59:46.130Z,0.00
2022-11-20T05:00:46.129Z,0.00
2022-11-20T05:01:46.105Z,0.00
2022-11-20T05:02:45.992Z,0.00
2022-11-20T05:03:45.945Z,0.00
2022-11-20T05:04:45.897Z,0.00
2022-11-20T05:05:45.855Z,0.00
2022-11-20T05:06:45.832Z,0.00
2022-11-20T05:07:45.760Z,0.00
2022-11-20T05:08:45.716Z,0.00
2022-11-20T05:09:45.696Z,0.00
2022-11-20T05:10:45.631Z,0.00
2022-11-20T05:11:49.110Z,0.00
2022-11-20T05:12:45.533Z,0.00
2022-11-20T05:13:45.507Z,0.00
2022-11-20T05:14:45.440Z,0.00
2022-11-20T05:15:45.392Z,0.00
2022-11-20T05:16:45.344Z,0.00
2022-11-20T05:17:45.297Z,0.00
2022-11-20T05:18:45.258Z,0.00
2022-11-20T05:19:47.425Z,0.00
2022-11-20T05:20:45.161Z,0.00
2022-11-20T05:21:45.114Z,0.00
2022-11-20T05:22:45.071Z,0.00
2022-11-20T05:23:45.031Z,0.00
2022-11-20T05:24:44.983Z,0.00
2022-11-20T05:25:44.951Z,0.00
2022-11-20T05:26:44.883Z,0.00
2022-11-20T05:27:44.838Z,0.00
2022-11-20T05:28:44.794Z,0.00
2022-11-20T05:29:44.744Z,0.00
2022-11-20T05:30:44.699Z,0.00
2022-11-20T05:31:44.673Z,0.00
2022-11-20T05:32:44.606Z,0.00
2022-11-20T05:33:44.569Z,0.00
2022-11-20T05:34:44.517Z,0.00
2022-11-20T05:35:44.469Z,0.00
2022-11-20T05:36:44.427Z,0.00
2022-11-20T05:37:44.396Z,0.00
2022-11-20T05:38:44.331Z,0.00
2022-11-20T05:39:44.284Z,0.00
2022-11-20T05:40:44.237Z,0.00
2022-11-20T05:41:44.196Z,0.00
2022-11-20T05:42:44.143Z,0.00
2022-11-20T05:43:44.124Z,0.00
2022-11-20T05:44:44.053Z,0.00
2022-11-20T05:45:44.003Z,0.00
2022-11-20T05:46:43.961Z,0.00
2022-11-20T05:47:43.912Z,0.00
2022-11-20T05:48:43.868Z,0.00
2022-11-20T05:49:43.843Z,0.00
2022-11-20T05:50:43.780Z,0.00
2022-11-20T05:51:43.724Z,0.00
2022-11-20T05:52:43.681Z,0.00
2022-11-20T05:53:48.005Z,0.00
2022-11-20T05:54:43.607Z,0.00
2022-11-20T05:55:43.544Z,0.00
2022-11-20T05:56:43.495Z,0.00
2022-11-20T05:57:43.448Z,0.00
2022-11-20T05:58:43.407Z,0.00
2022-11-20T05:59:43.354Z,0.00
2022-11-20T06:03:47.668Z,0.00
2022-11-20T06:04:47.585Z,0.00
2022-11-20T06:05:47.539Z,0.00
2022-11-20T06:06:47.492Z,0.00
2022-11-20T06:07:47.444Z,0.00
2022-11-20T06:08:47.396Z,0.00
2022-11-20T06:09:47.365Z,0.00
2022-11-20T06:10:47.308Z,0.00
2022-11-20T06:11:47.262Z,0.00
2022-11-20T06:12:47.214Z,0.00
2022-11-20T06:13:47.165Z,0.00
2022-11-20T06:14:47.121Z,0.00
2022-11-20T06:15:47.260Z,0.00
2022-11-20T06:16:47.021Z,0.00
2022-11-20T06:17:46.975Z,0.00
2022-11-20T06:18:46.924Z,0.00
2022-11-20T06:19:46.891Z,0.00
2022-11-20T06:20:46.850Z,0.00
2022-11-20T06:21:46.811Z,0.00
2022-11-20T06:22:46.739Z,0.00
2022-11-20T06:23:46.696Z,0.00
2022-11-20T06:24:46.655Z,0.00
2022-11-20T06:25:46.600Z,0.00
2022-11-20T06:26:46.551Z,0.00
2022-11-20T06:27:46.528Z,0.00
2022-11-20T06:28:46.512Z,0.00
2022-11-20T06:29:46.411Z,0.00
2022-11-20T06:30:46.366Z,0.00
2022-11-20T06:31:46.345Z,0.00
2022-11-20T06:32:46.287Z,0.00
2022-11-20T06:33:46.231Z,0.00
2022-11-20T06:34:46.179Z,0.00
2022-11-20T06:35:46.133Z,5.63
2022-11-20T06:36:46.090Z,5.63
2022-11-20T06:37:46.063Z,5.63
2022-11-20T06:38:45.994Z,5.63
2022-11-20T06:39:45.946Z,5.63
2022-11-20T06:40:45.898Z,5.63
2022-11-20T06:41:45.855Z,5.63
2022-11-20T06:42:45.809Z,5.63
2022-11-20T06:43:45.774Z,5.63
2022-11-20T06:44:45.713Z,5.63
2022-11-20T06:45:45.667Z,5.63
2022-11-20T06:46:45.618Z,5.63
2022-11-20T06:47:45.570Z,5.63
2022-11-20T06:48:45.528Z,5.63
2022-11-20T06:49:45.655Z,11.25
2022-11-20T06:50:45.432Z,11.25
2022-11-20T06:51:45.387Z,16.88
2022-11-20T06:52:45.335Z,16.88
2022-11-20T06:53:45.290Z,16.88
2022-11-20T06:54:45.243Z,16.88
2022-11-20T06:55:45.215Z,22.50
2022-11-20T06:56:45.153Z,28.13
2022-11-20T06:57:45.101Z,28.13
2022-11-20T06:58:45.055Z,33.75
2022-11-20T06:59:45.008Z,39.38
2022-11-20T07:00:45.016Z,45.00
2022-11-20T07:01:44.909Z,50.63
2022-11-20T07:02:44.866Z,50.63
2022-11-20T07:03:45.222Z,56.25
2022-11-20T07:04:44.769Z,61.88
2022-11-20T07:05:44.724Z,61.88
2022-11-20T07:06:44.701Z,67.50
2022-11-20T07:07:44.670Z,73.13
2022-11-20T07:08:44.583Z,78.75
2022-11-20T07:09:44.532Z,84.38
2022-11-20T07:10:44.489Z,90.00
2022-11-20T07:11:44.446Z,90.00
2022-11-20T07:12:44.423Z,95.63
2022-11-20T07:13:44.348Z,101.25
2022-11-20T07:14:44.304Z,106.88
2022-11-20T07:15:44.256Z,112.50
2022-11-20T07:16:44.205Z,118.13
2022-11-20T07:17:44.160Z,123.75
2022-11-20T07:18:49.941Z,129.38
2022-11-20T07:19:44.066Z,140.63
2022-11-20T07:20:44.017Z,168.75
2022-11-20T07:21:43.971Z,180.00
2022-11-20T07:22:43.926Z,191.25
2022-11-20T07:23:43.919Z,196.88
2022-11-20T07:24:46.164Z,191.25
2022-11-20T07:25:43.781Z,185.63
2022-11-20T07:26:43.731Z,180.00
2022-11-20T07:27:43.686Z,174.38
2022-11-20T07:28:43.641Z,157.50
2022-11-20T07:29:43.612Z,157.50
2022-11-20T07:30:43.551Z,157.50
2022-11-20T07:31:43.502Z,163.13
2022-11-20T07:32:43.452Z,163.13
2022-11-20T07:33:43.406Z,163.13
2022-11-20T07:34:43.363Z,168.75
2022-11-20T07:35:43.341Z,168.75
2022-11-20T07:36:43.264Z,168.75
2022-11-20T07:37:43.220Z,168.75
2022-11-20T07:38:43.172Z,163.13
2022-11-20T07:39:43.122Z,168.75
2022-11-20T07:40:43.102Z,185.63
2022-11-20T07:41:43.029Z,208.13
2022-11-20T07:42:42.985Z,219.38
2022-11-20T07:43:42.951Z,230.63
2022-11-20T07:44:42.893Z,230.63
2022-11-20T07:45:42.845Z,236.25
2022-11-20T07:46:42.798Z,236.25
2022-11-20T07:47:42.751Z,241.88
2022-11-20T07:48:42.706Z,253.13
2022-11-20T07:49:42.684Z,275.63
2022-11-20T07:50:42.640Z,309.38
2022-11-20T07:51:42.570Z,331.88
2022-11-20T07:52:42.521Z,326.25
2022-11-20T07:53:42.493Z,331.88
2022-11-20T07:54:42.422Z,343.13
2022-11-20T07:55:42.380Z,354.38
2022-11-20T07:56:42.334Z,337.50
2022-11-20T07:57:42.285Z,315.00
2022-11-20T07:58:42.235Z,298.13
2022-11-20T07:59:42.212Z,292.50
2022-11-20T08:00:42.182Z,292.50
2022-11-20T08:01:42.102Z,298.13
2022-11-20T08:02:42.050Z,309.38
2022-11-20T08:03:42.035Z,326.25
2022-11-20T08:04:41.960Z,331.88
2022-11-20T08:05:41.912Z,331.88
2022-11-20T08:06:41.865Z,320.63
2022-11-20T08:07:41.949Z,309.38
2022-11-20T08:08:43.083Z,315.00
2022-11-20T08:09:41.748Z,320.63
2022-11-20T08:10:41.681Z,331.88
2022-11-20T08:11:41.635Z,331.88
2022-11-20T08:12:41.592Z,326.25
2022-11-20T08:13:41.545Z,326.25
2022-11-20T08:14:41.498Z,331.88
2022-11-20T08:15:41.470Z,343.13
2022-11-20T08:16:41.407Z,354.38
2022-11-20T08:17:41.360Z,365.63
2022-11-20T08:18:41.320Z,365.63
2022-11-20T08:19:41.271Z,371.25
2022-11-20T08:20:41.222Z,376.88
2022-11-20T08:21:41.213Z,382.50
2022-11-20T08:22:41.131Z,388.13
2022-11-20T08:23:41.084Z,399.38
2022-11-20T08:24:41.043Z,421.88
2022-11-20T08:25:40.998Z,444.38
2022-11-20T08:26:40.950Z,461.25
2022-11-20T08:27:41.073Z,489.38
2022-11-20T08:28:40.856Z,500.63
2022-11-20T08:29:40.805Z,506.25
2022-11-20T08:30:40.761Z,517.50
2022-11-20T08:31:40.716Z,517.50
2022-11-20T08:32:40.670Z,511.88
2022-11-20T08:33:40.667Z,517.50
2022-11-20T08:34:40.579Z,517.50
2022-11-20T08:35:40.530Z,517.50
2022-11-20T08:36:40.493Z,500.63
2022-11-20T08:37:40.439Z,483.75
2022-11-20T08:38:40.393Z,478.13
2022-11-20T08:39:40.359Z,489.38
2022-11-20T08:40:40.304Z,511.88
2022-11-20T08:41:40.251Z,540.00
2022-11-20T08:42:40.211Z,568.13
2022-11-20T08:43:40.165Z,585.00
2022-11-20T08:44:40.121Z,613.13
2022-11-20T08:45:40.090Z,635.63
2022-11-20T08:46:40.032Z,646.88
2022-11-20T08:47:39.981Z,652.50
2022-11-20T08:48:39.939Z,652.50
2022-11-20T08:49:39.891Z,635.63
2022-11-20T08:50:39.850Z,618.75
2022-11-20T08:51:39.820Z,596.25
2022-11-20T08:52:39.946Z,585.00
2022-11-20T08:53:39.707Z,579.38
2022-11-20T08:54:39.664Z,568.13
2022-11-20T08:55:39.619Z,568.13
2022-11-20T08:56:39.577Z,573.75
2022-11-20T08:57:39.702Z,585.00
2022-11-20T08:59:02.078Z,590.63
2022-11-20T09:00:07.188Z,562.50
2022-11-20T09:00:39.413Z,534.38
2022-11-20T09:01:39.341Z,517.50
2022-11-20T09:02:39.299Z,500.63
2022-11-20T09:03:39.264Z,489.38
2022-11-20T09:04:39.206Z,478.13
2022-11-20T09:05:39.165Z,483.75
2022-11-20T09:06:39.119Z,483.75
2022-11-20T09:07:39.117Z,500.63
2022-11-20T09:08:39.049Z,511.88
2022-11-20T09:09:38.998Z,534.38
2022-11-20T09:10:38.935Z,562.50
2022-11-20T09:11:38.887Z,596.25
2022-11-20T09:12:38.847Z,618.75
2022-11-20T09:13:38.800Z,618.75
2022-11-20T09:14:38.785Z,624.38
2022-11-20T09:15:38.736Z,635.63
2022-11-20T09:16:38.667Z,641.25
2022-11-20T09:17:38.618Z,658.13
2022-11-20T09:18:38.574Z,686.25
2022-11-20T09:19:38.528Z,708.75
2022-11-20T09:20:38.505Z,742.50
2022-11-20T09:21:38.605Z,765.00
2022-11-20T09:22:38.387Z,781.88
2022-11-20T09:23:38.342Z,787.50
2022-11-20T09:24:38.299Z,776.25
2022-11-20T09:25:38.256Z,736.88
2022-11-20T09:26:38.213Z,703.13
2022-11-20T09:27:38.176Z,630.00
2022-11-20T09:28:38.118Z,624.38
2022-11-20T09:29:38.076Z,601.88
2022-11-20T09:30:38.029Z,596.25
2022-11-20T09:31:37.981Z,596.25
2022-11-20T09:32:37.933Z,607.50
2022-11-20T09:33:37.910Z,596.25
2022-11-20T09:34:37.846Z,585.00
2022-11-20T09:35:37.799Z,579.38
2022-11-20T09:36:37.757Z,590.63
2022-11-20T09:37:37.713Z,601.88
2022-11-20T09:38:37.669Z,641.25
2022-11-20T09:39:37.629Z,703.13
2022-11-20T09:40:37.576Z,776.25
2022-11-20T09:41:37.534Z,810.00
2022-11-20T09:42:37.492Z,832.50
2022-11-20T09:43:39.836Z,883.13
2022-11-20T09:44:37.417Z,961.88
2022-11-20T09:45:37.352Z,810.00
2022-11-20T09:46:37.303Z,804.38
2022-11-20T09:47:37.264Z,708.75
2022-11-20T09:48:37.217Z,686.25
2022-11-20T09:49:37.169Z,663.75
2022-11-20T09:50:37.168Z,663.75
2022-11-20T09:51:37.082Z,680.63
2022-11-20T09:52:37.043Z,691.88
2022-11-20T09:53:36.990Z,697.50
2022-11-20T09:54:36.948Z,686.25
2022-11-20T09:55:36.903Z,658.13
2022-11-20T09:56:36.884Z,652.50
2022-11-20T09:57:36.814Z,680.63
2022-11-20T09:58:36.773Z,703.13
2022-11-20T09:59:36.727Z,765.00
2022-11-20T10:00:36.741Z,781.88
2022-11-20T10:01:36.656Z,776.25
2022-11-20T10:02:36.618Z,776.25
2022-11-20T10:03:36.546Z,815.63
2022-11-20T10:04:39.617Z,866.25
2022-11-20T10:05:36.455Z,855.00
2022-11-20T10:06:36.413Z,866.25
2022-11-20T10:07:36.414Z,832.50
2022-11-20T10:08:36.316Z,821.25
2022-11-20T10:09:36.276Z,826.88
2022-11-20T10:10:41.011Z,815.63
2022-11-20T10:11:36.182Z,793.13
2022-11-20T10:12:36.142Z,680.63
2022-11-20T10:13:36.108Z,590.63
2022-11-20T10:14:36.054Z,585.00
2022-11-20T10:15:36.005Z,855.00
2022-11-20T10:16:40.786Z,978.75
2022-11-20T10:17:35.914Z,585.00
2022-11-20T10:18:35.872Z,1816.88
2022-11-20T10:19:35.846Z,646.88
2022-11-20T10:20:35.783Z,2193.75
2022-11-20T10:21:35.737Z,1788.75
2022-11-20T10:22:35.693Z,1355.63
2022-11-20T10:23:35.652Z,2362.50
2022-11-20T10:24:35.609Z,2306.25
2022-11-20T10:25:35.596Z,2126.25
2022-11-20T10:26:35.521Z,2143.13
2022-11-20T10:27:35.477Z,2002.50
2022-11-20T10:28:35.434Z,697.50
2022-11-20T10:29:35.400Z,787.50
2022-11-20T10:30:35.349Z,860.63
2022-11-20T10:31:35.332Z,888.75
2022-11-20T10:32:35.268Z,748.13
2022-11-20T10:33:57.170Z,753.75
2022-11-20T10:34:35.216Z,793.13
2022-11-20T10:35:35.137Z,939.38
2022-11-20T10:36:35.099Z,866.25
2022-11-20T10:37:35.058Z,1068.75
2022-11-20T10:38:35.014Z,1181.25
2022-11-20T10:39:34.972Z,1096.88
2022-11-20T10:40:34.965Z,1181.25
2022-11-20T10:41:37.040Z,2435.63
2022-11-20T10:42:34.844Z,1181.25
2022-11-20T10:43:34.799Z,1721.25
2022-11-20T10:44:34.761Z,2565.00
2022-11-20T10:45:34.744Z,916.88
2022-11-20T10:46:34.675Z,838.13
2022-11-20T10:47:34.631Z,815.63
2022-11-20T10:48:34.593Z,905.63
2022-11-20T10:49:34.567Z,1473.75
2022-11-20T10:50:34.508Z,1203.75
2022-11-20T10:51:34.463Z,922.50
2022-11-20T10:52:34.418Z,759.38
2022-11-20T10:53:34.375Z,742.50
2022-11-20T10:54:34.331Z,804.38
2022-11-20T10:55:34.329Z,928.13
2022-11-20T10:56:34.247Z,995.63
2022-11-20T10:57:34.205Z,928.13
2022-11-20T10:58:34.160Z,883.13
2022-11-20T10:59:34.119Z,995.63
2022-11-20T11:00:34.075Z,928.13
2022-11-20T11:01:34.130Z,714.38
2022-11-20T11:02:33.988Z,652.50
2022-11-20T11:03:33.949Z,736.88
2022-11-20T11:04:33.903Z,2598.75
2022-11-20T11:05:33.862Z,1018.13
2022-11-20T11:06:33.819Z,2441.25
2022-11-20T11:07:33.833Z,2677.50
2022-11-20T11:08:33.732Z,1372.50
2022-11-20T11:09:33.691Z,2716.88
2022-11-20T11:10:33.648Z,2671.88
2022-11-20T11:11:33.606Z,2565.00
2022-11-20T11:12:33.565Z,2553.75
2022-11-20T11:13:33.538Z,2171.25
2022-11-20T11:14:33.478Z,2565.00
2022-11-20T11:15:33.438Z,2576.25
2022-11-20T11:16:33.394Z,838.13
2022-11-20T11:17:33.361Z,945.00
2022-11-20T11:18:33.315Z,2508.75
2022-11-20T11:19:33.315Z,1794.38
2022-11-20T11:20:33.238Z,776.25
2022-11-20T11:21:33.192Z,793.13
2022-11-20T11:22:33.158Z,855.00
2022-11-20T11:23:33.114Z,855.00
2022-11-20T11:24:44.947Z,900.00
2022-11-20T11:25:33.052Z,883.13
2022-11-20T11:26:32.994Z,1063.13
2022-11-20T11:27:32.953Z,1012.50
2022-11-20T11:28:32.908Z,855.00
2022-11-20T11:29:32.867Z,871.88
2022-11-20T11:30:32.834Z,787.50
2022-11-20T11:31:32.813Z,641.25
2022-11-20T11:32:32.746Z,556.88
2022-11-20T11:33:32.704Z,731.25
2022-11-20T11:34:32.660Z,697.50
2022-11-20T11:35:32.618Z,753.75
2022-11-20T11:36:32.577Z,838.13
2022-11-20T11:37:32.559Z,877.50
2022-11-20T11:38:32.490Z,911.25
2022-11-20T11:39:32.452Z,984.38
2022-11-20T11:40:32.426Z,1051.88
2022-11-20T11:41:32.369Z,1108.13
2022-11-20T11:42:32.325Z,1113.75
2022-11-20T11:43:36.762Z,1091.25
2022-11-20T11:44:32.240Z,1074.38
2022-11-20T11:45:32.200Z,1046.25
2022-11-20T11:46:33.171Z,1085.63
2022-11-20T11:47:32.112Z,1080.00
2022-11-20T11:48:32.070Z,1068.75
2022-11-20T11:49:32.033Z,1085.63
2022-11-20T11:50:31.987Z,1136.25
2022-11-20T11:51:31.965Z,1175.63
2022-11-20T11:52:31.924Z,1147.50
2022-11-20T11:53:31.862Z,1051.88
2022-11-20T11:54:31.820Z,933.75
2022-11-20T11:55:31.779Z,866.25
2022-11-20T11:56:31.733Z,832.50
2022-11-20T11:57:31.731Z,787.50
2022-11-20T11:58:31.671Z,720.00
2022-11-20T11:59:31.606Z,635.63
2022-11-20T12:00:31.561Z,545.63
2022-11-20T12:01:31.521Z,461.25
2022-11-20T12:02:31.550Z,382.50
2022-11-20T12:03:31.451Z,326.25
2022-11-20T12:04:31.396Z,275.63
2022-11-20T12:05:31.354Z,236.25
2022-11-20T12:06:31.305Z,213.75
2022-11-20T12:07:46.234Z,196.88
2022-11-20T12:08:31.253Z,185.63
2022-11-20T12:09:31.201Z,168.75
2022-11-20T12:10:31.161Z,157.50
2022-11-20T12:11:31.089Z,146.25
2022-11-20T12:12:31.047Z,140.63
2022-11-20T12:13:31.003Z,140.63
2022-11-20T12:14:30.977Z,140.63
2022-11-20T12:15:30.915Z,140.63
2022-11-20T12:16:30.874Z,140.63
2022-11-20T12:17:30.829Z,146.25
2022-11-20T12:18:30.789Z,157.50
2022-11-20T12:19:30.742Z,180.00
2022-11-20T12:20:30.885Z,219.38
2022-11-20T12:21:30.655Z,320.63
2022-11-20T12:22:30.612Z,382.50
2022-11-20T12:23:30.570Z,405.00
2022-11-20T12:24:30.521Z,450.00
2022-11-20T12:25:30.481Z,517.50
2022-11-20T12:26:30.463Z,601.88
2022-11-20T12:27:30.392Z,675.00
2022-11-20T12:28:30.349Z,725.63
2022-11-20T12:29:30.308Z,753.75
2022-11-20T12:30:30.256Z,748.13
2022-11-20T12:31:30.236Z,736.88
2022-11-20T12:32:30.168Z,753.75
2022-11-20T12:33:30.129Z,787.50
2022-11-20T12:34:30.077Z,821.25
2022-11-20T12:35:30.034Z,838.13
2022-11-20T12:36:29.987Z,832.50
2022-11-20T12:37:29.973Z,838.13
2022-11-20T12:38:29.908Z,1040.63
2022-11-20T12:39:29.855Z,888.75
2022-11-20T12:40:29.815Z,871.88
2022-11-20T12:41:29.789Z,900.00
2022-11-20T12:42:29.726Z,984.38
2022-11-20T12:43:29.684Z,1012.50
2022-11-20T12:44:29.636Z,1074.38
2022-11-20T12:45:29.596Z,1147.50
2022-11-20T12:46:29.548Z,1001.25
2022-11-20T12:47:29.534Z,1428.75
2022-11-20T12:48:29.487Z,1839.38
2022-11-20T12:49:29.419Z,1777.50
2022-11-20T12:50:30.532Z,1743.75
2022-11-20T12:51:29.360Z,1743.75
2022-11-20T12:52:29.310Z,1732.50
2022-11-20T12:53:29.252Z,1710.00
2022-11-20T12:54:29.209Z,1614.38
2022-11-20T12:55:29.165Z,1631.25